Time;durP1;ratioP1;P1;durP2;ratioP2;P2;SDS_P1;SDS_P2;PMS_P1;PMS_P2;Temp;Humidity;BMP_temperature;BMP_pressure;BME280_temperature;BME280_humidity;BME280_pressure;Samples;Min_cycle;Max_cycle;Signal;HPM_P1;HPM_P2
2023/01/10 00:02:22;;;;;;;9.52;7.43;;;;;;;7.08;100.00;92263.97;5075416;28;20044;-69
2023/01/10 00:04:50;;;;;;;9.05;7.63;;;;;;;7.14;100.00;92271.78;5088693;28;20048;-69
2023/01/10 00:07:16;;;;;;;8.77;6.78;;;;;;;7.15;100.00;92273.34;5089029;28;20446;-69
2023/01/10 00:09:43;;;;;;;8.60;6.32;;;;;;;7.14;100.00;92270.00;5088525;28;20096;-69
2023/01/10 00:14:54;;;;;;;9.20;6.75;;;;;;;7.17;100.00;92261.91;5088876;28;20130;-69
2023/01/10 00:17:21;;;;;;;12.13;7.18;;;;;;;7.21;100.00;92262.25;5088621;28;20113;-68
2023/01/10 00:19:47;;;;;;;9.88;7.05;;;;;;;7.21;100.00;92257.94;5088520;28;20044;-69
2023/01/10 00:22:23;;;;;;;8.82;6.45;;;;;;;7.24;100.00;92248.28;5088388;28;20094;-69
2023/01/10 00:24:50;;;;;;;7.82;6.10;;;;;;;7.20;100.00;92230.06;5088172;28;20040;-68
2023/01/10 00:27:21;;;;;;;9.57;6.53;;;;;;;7.22;100.00;92246.72;5088659;28;20117;-69
2023/01/10 00:29:50;;;;;;;9.60;6.18;;;;;;;7.22;100.00;92235.72;5088357;28;20051;-68
2023/01/10 00:32:16;;;;;;;8.98;5.55;;;;;;;6.98;100.00;92230.47;5091967;28;20048;-68
2023/01/10 00:34:43;;;;;;;11.15;7.25;;;;;;;6.99;100.00;92219.25;5091302;28;20473;-69
2023/01/10 00:37:10;;;;;;;29.48;14.98;;;;;;;6.98;100.00;92210.03;5092143;28;20044;-69
2023/01/10 00:39:38;;;;;;;12.95;8.77;;;;;;;6.98;100.00;92217.69;5091810;28;20048;-68
2023/01/10 00:44:50;;;;;;;5.93;4.40;;;;;;;6.95;100.00;92223.25;5080339;28;20140;-69
2023/01/10 00:47:17;;;;;;;5.85;3.55;;;;;;;6.99;100.00;92208.28;5092283;28;20063;-69
2023/01/10 00:49:44;;;;;;;5.40;3.70;;;;;;;7.02;100.00;92197.63;5088946;28;20472;-69
2023/01/10 00:52:11;;;;;;;32.90;15.60;;;;;;;7.01;100.00;92199.41;5091593;28;20074;-69
2023/01/10 00:54:39;;;;;;;6.88;4.32;;;;;;;7.07;100.00;92200.31;5091839;28;20052;-68
2023/01/10 00:57:05;;;;;;;5.97;4.07;;;;;;;7.05;100.00;92200.53;5091769;28;20040;-68
2023/01/10 00:59:32;;;;;;;5.32;4.00;;;;;;;6.99;100.00;92205.72;5088681;28;20503;-68
2023/01/10 01:01:59;;;;;;;4.70;3.33;;;;;;;7.02;100.00;92206.09;5091185;28;20094;-68
2023/01/10 01:04:25;;;;;;;11.88;6.45;;;;;;;6.97;100.00;92205.94;5091378;28;20040;-69
2023/01/10 01:06:52;;;;;;;7.28;4.43;;;;;;;6.81;100.00;92176.66;5091426;28;20055;-68
2023/01/10 01:09:19;;;;;;;4.93;2.97;;;;;;;7.10;100.00;92199.91;5091310;28;20056;-69
2023/01/10 01:11:48;;;;;;;23.40;11.85;;;;;;;7.06;100.00;92179.13;5090962;28;20082;-68
2023/01/10 01:14:14;;;;;;;10.02;5.97;;;;;;;6.90;100.00;92185.56;5090960;28;20040;-69
2023/01/10 01:16:41;;;;;;;15.05;8.93;;;;;;;6.79;100.00;92178.63;5091184;28;20101;-68
2023/01/10 01:19:08;;;;;;;19.38;10.38;;;;;;;6.65;100.00;92177.97;5090669;28;20444;-68
2023/01/10 01:21:35;;;;;;;19.25;12.10;;;;;;;6.72;100.00;92163.38;5091239;28;20128;-68
2023/01/10 01:24:01;;;;;;;18.95;11.02;;;;;;;6.74;100.00;92158.06;5090844;28;20089;-68
2023/01/10 01:26:28;;;;;;;25.63;12.93;;;;;;;6.77;100.00;92152.53;5090652;28;20519;-69
2023/01/10 01:28:56;;;;;;;18.05;10.57;;;;;;;6.83;100.00;92154.25;5091009;28;20093;-69
2023/01/10 01:31:23;;;;;;;8.88;5.43;;;;;;;6.90;100.00;92157.50;5090788;28;20385;-71
2023/01/10 01:33:50;;;;;;;12.23;5.90;;;;;;;6.76;100.00;92156.09;5090373;28;20077;-69
2023/01/10 01:36:17;;;;;;;13.98;6.50;;;;;;;6.80;100.00;92154.66;5090525;28;20048;-69
2023/01/10 01:38:44;;;;;;;7.85;4.65;;;;;;;6.78;100.00;92172.75;5090459;28;20036;-68
2023/01/10 01:44:02;;;;;;;14.13;6.60;;;;;;;6.64;100.00;92172.09;5090627;28;20062;-68
2023/01/10 01:46:31;;;;;;;12.85;7.50;;;;;;;6.56;100.00;92149.38;5088475;28;20040;-68
2023/01/10 01:48:58;;;;;;;7.25;4.70;;;;;;;6.61;100.00;92148.78;5090436;28;20408;-68
2023/01/10 01:51:30;;;;;;;5.60;3.97;;;;;;;6.65;100.00;92150.69;5090081;28;20086;-68
2023/01/10 01:54:01;;;;;;;5.50;3.42;;;;;;;6.80;100.00;92154.66;5090479;28;20045;-68
2023/01/10 01:56:31;;;;;;;8.25;4.07;;;;;;;6.84;100.00;92153.25;5090136;28;20573;-68
2023/01/10 01:59:06;;;;;;;8.13;4.60;;;;;;;6.87;100.00;92136.72;5090323;28;20393;-69
2023/01/10 02:01:35;;;;;;;4.93;3.38;;;;;;;7.04;100.00;92144.59;5090110;28;20044;-68
2023/01/10 02:04:09;;;;;;;9.25;5.60;;;;;;;7.02;100.00;92139.69;5089920;28;20044;-68
2023/01/10 02:06:36;;;;;;;5.68;3.33;;;;;;;7.08;100.00;92155.91;5089956;28;20059;-68
2023/01/10 02:09:08;;;;;;;4.38;3.22;;;;;;;7.15;100.00;92146.44;5090100;28;20048;-68
2023/01/10 02:11:35;;;;;;;4.00;2.60;;;;;;;7.04;100.00;92135.16;5089711;28;20090;-68
2023/01/10 02:14:05;;;;;;;5.20;3.25;;;;;;;7.15;100.00;92138.78;5090155;28;20520;-68
2023/01/10 02:16:32;;;;;;;4.57;3.17;;;;;;;7.11;100.00;92132.53;5090245;28;20097;-69
2023/01/10 02:19:05;;;;;;;6.78;4.25;;;;;;;7.08;100.00;92131.19;5080445;28;20049;-70
2023/01/10 02:21:59;;;;;;;12.07;6.68;;;;;;;7.18;100.00;92130.66;5071146;28;20059;-70
2023/01/10 02:25:04;;;;;;;5.93;4.10;;;;;;;7.16;100.00;92131.88;5069543;28;20102;-69
2023/01/10 02:27:50;;;;;;;5.50;3.60;;;;;;;7.18;100.00;92129.91;5068944;28;20044;-69
2023/01/10 02:30:52;;;;;;;4.63;3.10;;;;;;;7.24;100.00;92133.34;5069335;28;20135;-70
2023/01/10 02:33:26;;;;;;;4.60;3.15;;;;;;;7.22;100.00;92133.56;5058389;28;20447;-69
2023/01/10 02:36:05;;;;;;;3.90;2.75;;;;;;;7.27;100.00;92132.94;5069145;28;20440;-70
2023/01/10 02:38:46;;;;;;;3.88;3.03;;;;;;;7.29;100.00;92123.28;5069266;28;20381;-69
2023/01/10 02:41:22;;;;;;;4.05;2.80;;;;;;;7.25;100.00;92115.25;5069058;28;20048;-69
2023/01/10 02:43:55;;;;;;;4.05;2.65;;;;;;;7.22;100.00;92113.91;5069039;28;20045;-69
2023/01/10 02:46:26;;;;;;;5.13;3.20;;;;;;;7.17;100.00;92110.47;5068873;28;20489;-70
2023/01/10 02:48:55;;;;;;;5.57;3.67;;;;;;;7.17;100.00;92110.47;5069069;28;20447;-70
2023/01/10 02:51:23;;;;;;;4.35;3.20;;;;;;;7.14;100.00;92124.44;5071620;28;20041;-69
2023/01/10 02:53:55;;;;;;;5.00;3.15;;;;;;;7.02;100.00;92121.81;5067530;28;20056;-69
2023/01/10 02:57:03;;;;;;;6.25;3.60;;;;;;;7.08;100.00;92128.63;5069039;28;20125;-69
2023/01/10 03:00:02;;;;;;;4.75;3.50;;;;;;;7.16;100.00;92130.09;5068737;28;20053;-69
2023/01/10 03:02:44;;;;;;;5.53;3.67;;;;;;;7.20;100.00;92143.22;5068717;28;20048;-69
2023/01/10 03:05:22;;;;;;;7.00;3.60;;;;;;;7.22;100.00;92136.13;5068630;28;20098;-70
2023/01/10 03:07:55;;;;;;;6.00;3.67;;;;;;;7.21;100.00;92147.31;5068364;28;20045;-69
2023/01/10 03:10:29;;;;;;;7.68;5.00;;;;;;;7.25;100.00;92140.00;5068814;28;20048;-69
2023/01/10 03:12:58;;;;;;;6.38;4.75;;;;;;;7.25;100.00;92153.56;5068548;28;20087;-69
2023/01/10 03:15:31;;;;;;;6.53;5.10;;;;;;;7.30;100.00;92161.38;5068509;28;20048;-69
2023/01/10 03:18:02;;;;;;;9.45;5.80;;;;;;;7.38;100.00;92155.19;5068976;28;20110;-70
2023/01/10 03:20:35;;;;;;;6.78;5.40;;;;;;;7.31;100.00;92160.38;5068861;28;20090;-69
2023/01/10 03:23:05;;;;;;;8.55;5.07;;;;;;;7.45;100.00;92158.44;5068708;28;20048;-69
2023/01/10 03:25:36;;;;;;;9.25;6.53;;;;;;;7.28;100.00;92139.59;5068467;28;20040;-69
2023/01/10 03:28:08;;;;;;;8.48;5.97;;;;;;;7.31;100.00;92139.19;5068389;28;20447;-69
2023/01/10 03:30:43;;;;;;;9.63;6.32;;;;;;;7.42;100.00;92148.66;5068505;28;20412;-69
2023/01/10 03:33:11;;;;;;;8.40;6.15;;;;;;;7.42;100.00;92155.53;5068421;28;20064;-69
2023/01/10 03:35:56;;;;;;;7.68;5.93;;;;;;;7.44;100.00;92141.56;5068346;28;20504;-69
2023/01/10 03:38:31;;;;;;;8.77;5.97;;;;;;;7.46;100.00;92138.78;5068335;28;20489;-69
2023/01/10 03:41:03;;;;;;;10.00;7.67;;;;;;;7.44;100.00;92123.66;5068687;28;20052;-69
2023/01/10 03:46:30;;;;;;;7.68;5.00;;;;;;;7.46;100.00;92114.00;5068450;28;20059;-69
2023/01/10 03:48:59;;;;;;;7.05;5.15;;;;;;;7.53;100.00;92101.13;5068144;28;20064;-69
2023/01/10 03:51:29;;;;;;;7.32;5.50;;;;;;;7.52;100.00;92093.69;5070897;28;20488;-70
2023/01/10 03:53:59;;;;;;;8.45;6.03;;;;;;;7.52;100.00;92071.47;5068354;28;20048;-69
2023/01/10 03:56:26;;;;;;;8.38;6.07;;;;;;;7.58;100.00;92070.59;5068418;28;20110;-69
2023/01/10 03:58:53;;;;;;;22.85;11.60;;;;;;;7.61;100.00;92056.59;5067872;28;20041;-69
2023/01/10 04:01:20;;;;;;;15.52;10.02;;;;;;;7.64;100.00;92042.63;5068281;28;20044;-69
2023/01/10 04:03:47;;;;;;;19.02;11.23;;;;;;;7.48;100.00;92009.03;5067999;28;20504;-69
2023/01/10 04:06:13;;;;;;;16.67;10.65;;;;;;;7.58;100.00;92009.28;5070742;28;20389;-69
2023/01/10 04:08:42;;;;;;;14.10;8.85;;;;;;;7.62;100.00;92002.72;5072083;28;20040;-70
2023/01/10 04:11:08;;;;;;;14.60;8.77;;;;;;;7.66;100.00;92020.16;5071987;28;20094;-69
2023/01/10 04:13:36;;;;;;;9.73;6.95;;;;;;;7.67;100.00;92048.06;5071923;28;20488;-70
2023/01/10 04:16:03;;;;;;;8.23;5.82;;;;;;;7.66;100.00;92058.50;5071814;28;20055;-70
2023/01/10 04:18:30;;;;;;;7.57;5.70;;;;;;;7.68;100.00;92077.72;5071868;28;20045;-70
2023/01/10 04:20:56;;;;;;;7.65;6.40;;;;;;;7.81;100.00;92097.19;5071600;28;20044;-70
2023/01/10 04:23:23;;;;;;;8.82;6.43;;;;;;;7.85;100.00;92103.44;5071801;28;20040;-70
2023/01/10 04:25:51;;;;;;;8.80;6.70;;;;;;;7.82;100.00;92113.34;5071312;28;20040;-70
2023/01/10 04:28:18;;;;;;;10.15;6.30;;;;;;;7.78;100.00;92104.53;5071423;28;20541;-70
2023/01/10 04:30:44;;;;;;;8.68;6.47;;;;;;;7.56;100.00;92084.59;5071749;28;20130;-70
2023/01/10 04:33:11;;;;;;;9.82;6.43;;;;;;;7.78;100.00;92107.09;5071428;28;20048;-69
2023/01/10 04:35:38;;;;;;;8.70;6.25;;;;;;;7.73;100.00;92095.75;5071940;28;20044;-69
2023/01/10 04:38:04;;;;;;;8.57;6.13;;;;;;;7.76;100.00;92102.19;5071636;28;20070;-69
2023/01/10 04:40:31;;;;;;;8.05;5.32;;;;;;;7.72;100.00;92098.50;5080666;28;20044;-69
2023/01/10 04:42:59;;;;;;;8.48;5.82;;;;;;;7.66;100.00;92092.50;5091928;28;20056;-69
2023/01/10 04:45:26;;;;;;;10.20;7.75;;;;;;;7.58;100.00;92095.38;5092227;28;20167;-69
2023/01/10 04:47:54;;;;;;;8.25;6.00;;;;;;;7.56;100.00;92093.06;5092123;28;20052;-69
2023/01/10 04:50:22;;;;;;;9.30;7.10;;;;;;;7.55;100.00;92080.47;5092070;28;20044;-69
2023/01/10 04:52:49;;;;;;;12.65;8.07;;;;;;;7.02;100.00;92083.53;5091750;28;20051;-69
2023/01/10 04:55:16;;;;;;;13.85;9.52;;;;;;;6.58;100.00;92075.97;5091772;28;20052;-69
2023/01/10 04:57:42;;;;;;;15.27;9.55;;;;;;;6.29;100.00;92073.13;5091964;28;20040;-69
2023/01/10 05:00:13;;;;;;;15.70;9.98;;;;;;;6.08;100.00;92075.09;5091382;28;20048;-69
2023/01/10 05:02:42;;;;;;;21.92;13.05;;;;;;;5.83;100.00;92069.97;5091952;28;20062;-69
2023/01/10 05:05:10;;;;;;;27.95;15.25;;;;;;;5.79;100.00;92072.13;5091655;28;20040;-70
2023/01/10 05:07:36;;;;;;;18.08;11.05;;;;;;;5.86;100.00;92064.44;5091860;28;20113;-70
2023/01/10 05:10:04;;;;;;;14.95;9.40;;;;;;;5.96;100.00;92056.31;5091627;28;20074;-70
2023/01/10 05:12:31;;;;;;;15.57;9.93;;;;;;;6.04;100.00;92062.94;5091295;28;20553;-69
2023/01/10 05:14:57;;;;;;;15.35;9.82;;;;;;;6.10;100.00;92059.56;5080882;28;20049;-69
2023/01/10 05:17:26;;;;;;;14.27;8.98;;;;;;;6.08;100.00;92059.78;5082769;28;20113;-69
2023/01/10 05:19:52;;;;;;;15.57;9.82;;;;;;;6.13;100.00;92074.44;5090670;28;20039;-69
2023/01/10 05:22:19;;;;;;;15.73;10.02;;;;;;;6.01;100.00;92066.66;5091212;28;20052;-69
2023/01/10 05:24:46;;;;;;;15.43;10.90;;;;;;;5.92;100.00;92065.41;5091664;28;20044;-69
2023/01/10 05:27:13;;;;;;;16.40;9.57;;;;;;;5.87;100.00;92074.44;5091305;28;20052;-69
2023/01/10 05:29:39;;;;;;;15.23;8.82;;;;;;;5.84;100.00;92066.44;5091222;28;20156;-69
2023/01/10 05:32:06;;;;;;;11.85;8.25;;;;;;;5.84;100.00;92074.84;5091165;28;20052;-69
2023/01/10 05:34:34;;;;;;;12.48;8.98;;;;;;;5.75;100.00;92069.22;5091068;28;20450;-69
2023/01/10 05:37:01;;;;;;;14.88;9.13;;;;;;;5.77;100.00;92070.78;5091312;28;20055;-69
2023/01/10 05:39:28;;;;;;;14.30;9.57;;;;;;;5.71;100.00;92072.41;5091330;28;20133;-69
2023/01/10 05:41:54;;;;;;;12.90;8.32;;;;;;;5.54;100.00;92084.88;5090680;28;20044;-69
2023/01/10 05:44:21;;;;;;;12.93;8.32;;;;;;;5.47;100.00;92078.06;5091148;28;20048;-69
2023/01/10 05:46:48;;;;;;;11.55;8.57;;;;;;;5.54;100.00;92080.56;5090344;28;20105;-69
2023/01/10 05:49:15;;;;;;;13.65;8.57;;;;;;;5.52;100.00;92085.09;5090961;28;20117;-69
2023/01/10 05:51:43;;;;;;;11.98;8.48;;;;;;;5.57;100.00;92090.34;5090481;28;20550;-69
2023/01/10 05:54:09;;;;;;;15.32;9.13;;;;;;;5.61;100.00;92091.47;5090209;28;20044;-69
2023/01/10 05:56:37;;;;;;;15.85;9.75;;;;;;;5.57;100.00;92090.34;5090827;28;20055;-69
2023/01/10 05:59:04;;;;;;;13.57;9.23;;;;;;;5.58;100.00;92083.47;5090704;28;20056;-69
2023/01/10 06:01:31;;;;;;;15.02;9.13;;;;;;;5.63;100.00;92088.72;5090445;28;20055;-69
2023/01/10 06:03:57;;;;;;;15.65;11.23;;;;;;;5.66;100.00;92093.44;5077028;28;20094;-69
2023/01/10 06:06:24;;;;;;;14.55;9.52;;;;;;;5.71;100.00;92088.50;5090469;28;20450;-69
2023/01/10 06:08:54;;;;;;;13.65;8.70;;;;;;;5.76;100.00;92092.97;5090474;28;20036;-70
2023/01/10 06:11:22;;;;;;;16.85;11.45;;;;;;;5.83;100.00;92098.00;5090484;28;20067;-69
2023/01/10 06:13:52;;;;;;;12.27;9.52;;;;;;;5.91;100.00;92092.63;5086724;28;20515;-69
2023/01/10 06:16:19;;;;;;;13.13;9.38;;;;;;;5.99;100.00;92097.50;5088469;28;20441;-69
2023/01/10 06:18:46;;;;;;;12.63;9.65;;;;;;;6.13;100.00;92094.84;5089151;28;20040;-69
2023/01/10 06:21:12;;;;;;;13.10;8.93;;;;;;;6.18;100.00;92104.41;5090128;28;20040;-69
2023/01/10 06:23:39;;;;;;;12.57;8.70;;;;;;;6.27;100.00;92103.16;5089974;28;20055;-69
2023/01/10 06:26:07;;;;;;;26.88;16.65;;;;;;;6.10;100.00;92065.44;5089875;28;20488;-69
2023/01/10 06:28:34;;;;;;;23.45;16.42;;;;;;;6.26;100.00;92094.72;5089848;28;20086;-69
2023/01/10 06:31:01;;;;;;;17.05;11.40;;;;;;;6.24;100.00;92090.81;5089778;28;20075;-69
2023/01/10 06:33:27;;;;;;;8.30;5.80;;;;;;;6.32;100.00;92099.97;5089460;28;20609;-69
2023/01/10 06:35:54;;;;;;;7.63;5.13;;;;;;;6.33;100.00;92097.22;5089736;28;20044;-69
2023/01/10 06:38:21;;;;;;;6.47;4.30;;;;;;;6.35;100.00;92095.22;5089486;28;20454;-69
2023/01/10 06:40:47;;;;;;;6.40;4.60;;;;;;;6.41;100.00;92088.50;5089712;28;20411;-69
2023/01/10 06:43:15;;;;;;;7.60;5.22;;;;;;;6.49;100.00;92087.44;5089506;28;20408;-69
2023/01/10 06:45:42;;;;;;;14.02;8.82;;;;;;;6.61;100.00;92080.66;5089410;28;20492;-69
2023/01/10 06:48:09;;;;;;;20.38;11.77;;;;;;;6.63;100.00;92076.09;5089619;28;20048;-69
2023/01/10 06:50:36;;;;;;;16.48;10.05;;;;;;;6.64;100.00;92070.03;5089688;28;20101;-69
2023/01/10 06:53:03;;;;;;;19.98;12.48;;;;;;;6.39;100.00;92042.03;5089783;28;20496;-69
2023/01/10 06:55:31;;;;;;;15.63;11.10;;;;;;;6.39;100.00;92072.66;5088783;28;20496;-70
2023/01/10 06:57:59;;;;;;;17.70;11.93;;;;;;;6.28;100.00;92072.34;5089709;28;20048;-69
2023/01/10 07:00:28;;;;;;;12.85;9.25;;;;;;;6.31;100.00;92073.69;5089418;28;20044;-69
2023/01/10 07:02:56;;;;;;;18.33;13.35;;;;;;;6.37;100.00;92077.16;5089810;28;20048;-69
2023/01/10 07:05:23;;;;;;;20.63;15.35;;;;;;;6.29;100.00;92070.56;5089018;28;20135;-69
2023/01/10 07:07:49;;;;;;;17.80;13.02;;;;;;;6.01;100.00;92057.25;5089258;28;20102;-69
2023/01/10 07:10:17;;;;;;;16.00;11.77;;;;;;;5.82;100.00;92055.66;5089635;28;20047;-69
2023/01/10 07:12:43;;;;;;;21.45;13.70;;;;;;;5.45;100.00;92058.88;5089077;28;20098;-69
2023/01/10 07:15:11;;;;;;;19.10;13.73;;;;;;;5.34;100.00;92050.91;5089103;28;20537;-69
2023/01/10 07:17:39;;;;;;;22.05;15.68;;;;;;;5.22;100.00;92050.78;5089092;28;20044;-69
2023/01/10 07:20:07;;;;;;;23.67;16.00;;;;;;;4.90;100.00;92066.03;5089009;28;20048;-69
2023/01/10 07:22:34;;;;;;;20.38;15.85;;;;;;;4.87;100.00;92068.22;5089345;28;20055;-69
2023/01/10 07:25:01;;;;;;;20.60;14.18;;;;;;;4.81;100.00;92080.75;5089383;28;20446;-69
2023/01/10 07:27:30;;;;;;;22.90;15.35;;;;;;;4.89;100.00;92079.75;5089080;28;20469;-69
2023/01/10 07:29:57;;;;;;;23.90;16.33;;;;;;;4.90;100.00;92068.56;5088935;28;20505;-69
2023/01/10 07:32:24;;;;;;;21.23;13.40;;;;;;;4.60;100.00;92055.59;5089190;28;20048;-69
2023/01/10 07:34:52;;;;;;;20.48;13.02;;;;;;;4.46;100.00;92052.31;5088760;28;20040;-70
2023/01/10 07:37:19;;;;;;;24.42;16.75;;;;;;;4.41;100.00;92058.78;5088727;28;20085;-69
2023/01/10 07:39:45;;;;;;;22.08;15.52;;;;;;;4.27;100.00;92067.44;5089450;28;20409;-69
2023/01/10 07:42:12;;;;;;;24.80;17.23;;;;;;;4.23;100.00;92064.50;5093052;28;20044;-69
2023/01/10 07:44:39;;;;;;;24.77;17.33;;;;;;;4.16;100.00;92070.59;5093267;28;20614;-69
2023/01/10 07:47:05;;;;;;;27.75;17.58;;;;;;;4.12;100.00;92073.50;5093187;28;20101;-69
2023/01/10 07:49:32;;;;;;;25.95;16.40;;;;;;;4.04;100.00;92072.94;5092958;28;20048;-69
2023/01/10 07:52:00;;;;;;;22.98;14.82;;;;;;;3.98;100.00;92077.81;5092681;28;20541;-69
2023/01/10 07:54:27;;;;;;;48.88;23.23;;;;;;;3.80;100.00;92068.25;5092859;28;20040;-69
2023/01/10 07:56:53;;;;;;;30.05;16.67;;;;;;;3.73;100.00;92065.72;5092858;28;20043;-69
2023/01/10 07:59:20;;;;;;;28.85;15.18;;;;;;;3.80;100.00;92059.88;5092639;28;20052;-69
2023/01/10 08:01:47;;;;;;;31.13;18.92;;;;;;;3.78;100.00;92051.66;5092773;28;20044;-69
2023/01/10 08:04:14;;;;;;;151.40;71.88;;;;;;;3.77;100.00;92053.41;5092492;28;20142;-69
2023/01/10 08:06:41;;;;;;;25.15;16.98;;;;;;;3.92;100.00;92054.94;5092442;28;20454;-69
2023/01/10 08:09:09;;;;;;;22.15;15.73;;;;;;;3.85;100.00;92060.06;5092972;28;20052;-69
2023/01/10 08:11:35;;;;;;;22.85;15.98;;;;;;;3.88;100.00;92065.53;5092588;28;20180;-69
2023/01/10 08:14:02;;;;;;;39.88;24.88;;;;;;;3.98;100.00;92062.56;5092293;28;20044;-69
2023/01/10 08:16:29;;;;;;;36.10;21.40;;;;;;;4.19;100.00;92054.91;5092312;28;20094;-69
2023/01/10 08:18:55;;;;;;;37.67;21.90;;;;;;;4.37;100.00;92051.75;5092683;28;20036;-69
2023/01/10 08:21:22;;;;;;;26.20;18.35;;;;;;;4.27;100.00;92032.59;5092416;28;20101;-69
2023/01/10 08:23:50;;;;;;;29.58;18.75;;;;;;;4.60;100.00;92065.75;5092598;28;20089;-69
2023/01/10 08:26:18;;;;;;;23.15;16.60;;;;;;;4.63;100.00;92063.59;5092396;28;20139;-69
2023/01/10 08:28:45;;;;;;;23.52;15.52;;;;;;;4.53;100.00;92058.94;5091944;28;20048;-70
2023/01/10 08:31:12;;;;;;;22.63;15.30;;;;;;;4.55;100.00;92063.84;5091901;28;20044;-70
2023/01/10 08:33:39;;;;;;;21.52;14.10;;;;;;;4.39;100.00;92059.94;5092153;28;20044;-69
2023/01/10 08:36:06;;;;;;;21.55;14.60;;;;;;;4.30;100.00;92054.31;5092003;28;20827;-69
2023/01/10 08:38:33;;;;;;;22.95;15.70;;;;;;;4.17;100.00;92059.44;5092347;28;20044;-69
2023/01/10 08:40:59;;;;;;;24.95;17.15;;;;;;;4.05;100.00;92054.94;5092246;28;20466;-69
2023/01/10 08:43:27;;;;;;;27.83;17.70;;;;;;;3.99;100.00;92053.22;5092215;28;20056;-69
2023/01/10 08:45:54;;;;;;;25.20;18.23;;;;;;;4.00;100.00;92053.00;5092058;28;20089;-69
2023/01/10 08:48:21;;;;;;;26.88;18.85;;;;;;;4.00;100.00;92044.59;5091940;28;20052;-69
2023/01/10 08:50:47;;;;;;;26.05;18.17;;;;;;;3.88;100.00;92047.75;5091862;28;20125;-69
2023/01/10 08:53:14;;;;;;;31.83;22.73;;;;;;;3.93;100.00;92046.38;5092192;28;20052;-69
2023/01/10 08:55:41;;;;;;;27.83;19.88;;;;;;;3.96;100.00;92049.31;5091692;28;20533;-69
2023/01/10 08:58:10;;;;;;;32.55;21.58;;;;;;;3.80;100.00;92040.31;5088668;28;20443;-69
2023/01/10 09:00:38;;;;;;;38.65;27.15;;;;;;;3.71;100.00;92037.19;5090214;28;20109;-69
2023/01/10 09:03:06;;;;;;;31.65;22.95;;;;;;;3.69;100.00;92040.91;5090898;28;20489;-70
2023/01/10 09:05:33;;;;;;;40.35;28.23;;;;;;;3.58;100.00;92032.94;5091300;28;20052;-69
2023/01/10 09:08:01;;;;;;;37.53;25.70;;;;;;;3.58;100.00;92034.66;5091663;28;20044;-69
2023/01/10 09:10:28;;;;;;;41.92;26.80;;;;;;;3.78;100.00;92033.88;5091315;28;20105;-69
2023/01/10 09:13:00;;;;;;;37.03;25.83;;;;;;;3.90;100.00;92042.47;5075530;28;20045;-69
2023/01/10 09:15:29;;;;;;;38.45;25.60;;;;;;;3.84;100.00;92044.03;5070853;28;20094;-69
2023/01/10 09:17:59;;;;;;;32.53;23.73;;;;;;;3.77;100.00;92035.63;5070495;28;20064;-69
2023/01/10 09:20:28;;;;;;;34.90;25.00;;;;;;;3.81;100.00;92038.56;5070363;28;20048;-69
2023/01/10 09:22:56;;;;;;;34.10;24.27;;;;;;;3.86;100.00;92036.22;5070360;28;20052;-69
2023/01/10 09:25:24;;;;;;;39.75;25.92;;;;;;;3.97;100.00;92039.91;5070182;28;20051;-69
2023/01/10 09:27:57;;;;;;;36.22;24.23;;;;;;;3.90;100.00;92024.69;5070306;28;20090;-69
2023/01/10 09:30:24;;;;;;;33.20;24.02;;;;;;;3.99;100.00;92031.09;5070599;28;20124;-69
2023/01/10 09:32:52;;;;;;;33.35;23.30;;;;;;;4.11;100.00;92031.28;5070179;28;20048;-69
2023/01/10 09:35:20;;;;;;;32.97;23.73;;;;;;;4.16;100.00;92025.59;5070120;28;20044;-69
2023/01/10 09:37:47;;;;;;;32.72;22.75;;;;;;;4.06;100.00;92013.31;5070073;28;20492;-69
2023/01/10 09:40:17;;;;;;;32.03;22.40;;;;;;;4.20;100.00;92033.59;5070331;28;20037;-69
2023/01/10 09:42:57;;;;;;;31.50;22.67;;;;;;;4.13;100.00;92023.47;5069994;28;20481;-69
2023/01/10 09:45:36;;;;;;;31.67;22.38;;;;;;;4.25;100.00;92019.31;5070132;28;20518;-69
2023/01/10 09:48:06;;;;;;;35.75;23.60;;;;;;;4.32;100.00;92018.53;5069933;28;20052;-69
2023/01/10 09:50:43;;;;;;;36.00;23.80;;;;;;;4.29;100.00;92017.16;5072470;28;20069;-69
2023/01/10 09:53:13;;;;;;;37.25;24.00;;;;;;;4.40;100.00;92020.84;5076380;28;20500;-69
2023/01/10 09:55:42;;;;;;;37.03;23.60;;;;;;;4.36;100.00;92009.53;5090513;28;20098;-69
2023/01/10 09:58:14;;;;;;;33.38;21.58;;;;;;;4.35;100.00;92000.34;5090506;28;20112;-69
2023/01/10 10:00:44;;;;;;;35.95;24.05;;;;;;;4.32;100.00;92004.06;5090735;28;20113;-69
2023/01/10 10:03:22;;;;;;;33.90;23.55;;;;;;;4.32;100.00;91996.44;5089098;28;20040;-69
2023/01/10 10:05:50;;;;;;;36.42;24.65;;;;;;;4.21;100.00;91990.19;5090339;28;20048;-70
2023/01/10 10:08:19;;;;;;;37.20;25.25;;;;;;;4.22;100.00;91991.75;5090463;28;20048;-70
2023/01/10 10:11:05;;;;;;;37.58;24.38;;;;;;;4.24;100.00;91989.00;5090978;28;20043;-69
2023/01/10 10:13:42;;;;;;;39.47;25.67;;;;;;;4.30;100.00;91992.53;5090319;28;20401;-69
2023/01/10 10:16:21;;;;;;;37.45;27.55;;;;;;;3.78;100.00;91919.56;5090451;28;20447;-69
2023/01/10 10:18:59;;;;;;;36.65;24.98;;;;;;;4.43;100.00;91989.94;5090267;28;20044;-69
2023/01/10 10:21:36;;;;;;;36.22;24.15;;;;;;;4.44;100.00;91988.94;5091557;28;20477;-69
2023/01/10 10:24:18;;;;;;;38.40;25.60;;;;;;;4.44;100.00;91988.19;5090051;28;20048;-69
2023/01/10 10:26:51;;;;;;;39.80;27.45;;;;;;;4.47;100.00;91972.50;5090044;28;20073;-69
2023/01/10 10:30:00;;;;;;;38.05;25.80;;;;;;;4.66;100.00;91975.94;5090068;28;20048;-69
2023/01/10 10:33:00;;;;;;;40.67;26.85;;;;;;;4.80;100.00;91962.16;5066541;28;20051;-69
2023/01/10 10:35:32;;;;;;;43.38;26.65;;;;;;;4.90;100.00;91961.72;5090065;28;20102;-69
2023/01/10 10:38:05;;;;;;;40.17;26.77;;;;;;;5.03;100.00;91962.59;5089905;28;20052;-69
2023/01/10 10:40:37;;;;;;;43.42;28.08;;;;;;;5.13;100.00;91955.28;5089325;28;20052;-69
2023/01/10 10:43:14;;;;;;;45.50;29.23;;;;;;;5.18;100.00;91959.75;5089614;28;20048;-69
2023/01/10 10:45:45;;;;;;;40.80;27.60;;;;;;;5.24;100.00;91953.84;5089842;28;20117;-69
2023/01/10 10:48:23;;;;;;;44.08;29.70;;;;;;;5.21;100.00;91949.94;5089604;28;20089;-69
2023/01/10 10:51:12;;;;;;;42.83;28.38;;;;;;;5.32;100.00;91947.72;5089583;28;20058;-69
2023/01/10 10:53:40;;;;;;;46.50;28.45;;;;;;;5.38;100.00;91957.06;5089669;28;20043;-69
2023/01/10 10:56:13;;;;;;;50.67;32.83;;;;;;;5.42;100.00;91962.53;5089269;28;20052;-69
2023/01/10 10:58:43;;;;;;;145.07;82.13;;;;;;;5.46;100.00;91966.22;5089583;28;20097;-69
2023/01/10 11:01:13;;;;;;;74.03;44.00;;;;;;;5.36;100.00;91961.56;5089622;28;20573;-69
2023/01/10 11:03:44;;;;;;;75.07;45.05;;;;;;;5.42;100.00;91963.28;5089253;28;20040;-69
2023/01/10 11:06:13;;;;;;;59.85;38.13;;;;;;;5.44;100.00;91968.97;5089141;28;20386;-69
2023/01/10 11:08:44;;;;;;;56.30;36.22;;;;;;;5.44;100.00;91948.59;5089564;28;20463;-69
2023/01/10 11:11:17;;;;;;;51.00;34.78;;;;;;;5.50;100.00;91956.38;5089270;28;20048;-69
2023/01/10 11:13:48;;;;;;;58.05;33.60;;;;;;;5.50;100.00;91944.41;5089572;28;20040;-69
2023/01/10 11:16:27;;;;;;;65.93;41.00;;;;;;;5.62;100.00;91949.59;5088386;28;20052;-69
2023/01/10 11:19:11;;;;;;;250.57;132.68;;;;;;;5.68;100.00;91955.63;5089308;28;20072;-69
2023/01/10 11:21:40;;;;;;;248.65;135.50;;;;;;;5.68;100.00;91948.75;5088957;28;20535;-69
2023/01/10 11:24:20;;;;;;;122.25;73.82;;;;;;;5.70;100.00;91930.72;5088970;28;20545;-69
2023/01/10 11:26:48;;;;;;;64.82;41.90;;;;;;;5.75;100.00;91928.31;5089397;28;20044;-69
2023/01/10 11:29:17;;;;;;;60.85;39.00;;;;;;;5.81;100.00;91927.47;5088852;28;20048;-69
2023/01/10 11:31:45;;;;;;;58.95;38.42;;;;;;;5.83;100.00;91940.78;5089417;28;20090;-69
2023/01/10 11:34:23;;;;;;;47.33;31.55;;;;;;;5.82;100.00;91928.25;5070807;28;20109;-69
2023/01/10 11:36:57;;;;;;;50.78;34.25;;;;;;;5.60;100.00;91931.97;5085872;28;20131;-69
2023/01/10 11:39:27;;;;;;;54.47;36.97;;;;;;;5.52;100.00;91923.84;5089259;28;20101;-69
2023/01/10 11:41:55;;;;;;;56.05;35.92;;;;;;;5.59;100.00;91924.53;5084175;28;20110;-69
2023/01/10 11:44:25;;;;;;;52.17;33.83;;;;;;;5.61;100.00;91923.34;5079695;28;20066;-69
2023/01/10 11:46:55;;;;;;;54.88;35.00;;;;;;;5.57;100.00;91919.69;5088573;28;20051;-69
2023/01/10 11:49:29;;;;;;;53.50;34.03;;;;;;;5.62;100.00;91919.03;5089151;28;20040;-69